Stations météo

réclame
Mon MeteoGroup
Mt. St.Vincent, France (7382): Température de l'air & dewpoint: 11.10.2019 10:00:00 - 17.10.2019 10:00:00 (CEST)Mt. St.Vincent, France (7382): Vitesse du vent & gusts: 11.10.2019 10:00:00 - 17.10.2019 10:00:00 (CEST)Mt. St.Vincent, France (7382): Direction du vent: 11.10.2019 10:00:00 - 17.10.2019 10:00:00 (CEST)Mt. St.Vincent, France (7382): Ensoleillement: 11.10.2019 10:00:00 - 17.10.2019 10:00:00 (CEST)Mt. St.Vincent, France (7382): Quantités de précipitations: 11.10.2019 10:00:00 - 17.10.2019 10:00:00 (CEST)
Date & Time tt [°C] td [°C] ff [km/h] ff [knt] fx [km/h] fx [knt] dd sd [min] rr [mm]
17.10.2019 10:00:00 - - - - - - - - -
17.10.2019 09:00:00 12,5 8,8 13 7 26 14 SSW 6 0,0
17.10.2019 08:00:00 12,0 8,5 16 9 26 14 S 0 -
17.10.2019 07:00:00 11,5 9,6 16 9 28 15 SE 0 0,0
17.10.2019 06:00:00 11,8 9,5 18 10 26 14 SE 0 0,0
17.10.2019 05:00:00 11,8 9,5 18 10 28 15 SSE 0 0,0
17.10.2019 04:00:00 11,3 10,0 18 10 26 14 S 0 0,4
17.10.2019 03:00:00 11,7 9,3 13 7 35 19 WSW 0 0,0
17.10.2019 02:00:00 12,7 8,4 22 12 39 21 W 0 -
17.10.2019 01:00:00 13,2 8,1 24 13 39 21 SW 0 0,0
17.10.2019 00:00:00 13,4 7,8 22 12 39 21 WSW 0 0,0
16.10.2019 23:00:00 13,5 7,5 22 12 34 18 WSW 0 0,0
16.10.2019 22:00:00 14,4 7,2 22 12 34 18 SW 0 0,0
16.10.2019 21:00:00 12,9 8,0 13 7 24 13 S 0 0,0
16.10.2019 20:00:00 12,9 8,4 15 8 26 14 SSE 0 -
16.10.2019 19:00:00 13,6 8,8 13 7 21 11 S 0 0,0
16.10.2019 18:00:00 14,9 9,0 13 7 26 14 SSE 54 0,0
16.10.2019 17:00:00 16,8 7,4 18 10 29 16 SSW 60 0,0
16.10.2019 16:00:00 17,6 8,2 13 7 34 18 SW 60 0,0
16.10.2019 15:00:00 16,7 8,4 16 9 37 20 SSW 60 0,0
16.10.2019 14:00:00 16,1 8,6 21 11 42 23 WSW 60 -
16.10.2019 13:00:00 15,8 7,8 15 8 34 18 S 60 0,0
16.10.2019 12:00:00 14,5 7,8 18 10 31 17 S 54 0,0
16.10.2019 11:00:00 12,8 7,2 16 9 28 15 S 54 0,0
16.10.2019 10:00:00 11,1 5,6 18 10 31 17 S 36 0,0
16.10.2019 09:00:00 9,3 4,9 18 10 29 16 SSE 0 0,0
16.10.2019 08:00:00 8,7 4,7 18 10 31 17 S 0 -
16.10.2019 07:00:00 8,7 5,1 15 8 28 15 S 0 0,0
16.10.2019 06:00:00 8,7 5,3 18 10 26 14 S 0 0,0
16.10.2019 05:00:00 8,5 5,6 16 9 28 15 S 0 0,0
16.10.2019 04:00:00 8,8 5,5 16 9 26 14 SSW 0 0,0
16.10.2019 03:00:00 8,5 5,8 16 9 31 17 SW 0 0,0
16.10.2019 02:00:00 8,3 5,9 21 11 39 21 WSW 0 -
16.10.2019 01:00:00 8,5 6,1 22 12 41 22 WSW 0 0,0
16.10.2019 00:00:00 7,9 6,0 29 16 41 22 WSW 0 0,0
15.10.2019 23:00:00 7,7 6,3 28 15 41 22 WSW 0 0,0
15.10.2019 22:00:00 7,9 6,8 26 14 41 22 WSW 0 0,0
15.10.2019 21:00:00 8,0 7,4 31 17 44 24 WSW 0 0,0
15.10.2019 20:00:00 8,4 8,1 24 13 42 23 WSW 0 -
15.10.2019 19:00:00 9,1 8,8 24 13 44 24 WSW 12 0,0
15.10.2019 18:00:00 9,5 9,5 26 14 55 30 W 0 0,2
15.10.2019 17:00:00 9,8 9,8 31 17 59 32 W 0 0,4
15.10.2019 16:00:00 9,6 9,6 35 19 61 33 W 0 0,6
15.10.2019 15:00:00 9,3 9,3 34 18 57 31 W 0 0,2
15.10.2019 14:00:00 9,7 9,7 29 16 54 29 W 0 -
15.10.2019 13:00:00 10,5 10,3 28 15 42 23 W 0 0,0
15.10.2019 12:00:00 10,8 10,8 21 11 37 20 W 0 0,0
15.10.2019 11:00:00 10,4 10,4 16 9 29 16 WSW 0 0,2
15.10.2019 10:00:00 10,3 10,3 9 5 18 10 S 0 2,0
15.10.2019 09:00:00 10,1 10,1 13 7 26 14 SW 0 1,0
15.10.2019 08:00:00 10,2 10,2 11 6 18 10 SE 0 -
15.10.2019 07:00:00 10,4 10,4 8 4 15 8 W 0 6,0
15.10.2019 06:00:00 10,3 10,3 4 2 26 14 N 0 7,0
15.10.2019 05:00:00 10,2 10,2 8 4 34 18 NW 0 8,0
15.10.2019 04:00:00 10,3 10,3 11 6 37 20 NW 0 5,0
15.10.2019 03:00:00 9,9 9,9 29 16 74 40 WNW 0 5,0
15.10.2019 02:00:00 12,2 11,9 15 8 26 14 WNW 0 -
15.10.2019 01:00:00 12,5 12,0 21 11 68 37 WNW 0 0,2
15.10.2019 00:00:00 17,2 12,5 18 10 29 16 S 0 0,0
14.10.2019 23:00:00 17,7 12,2 18 10 37 20 SSE 0 0,0
14.10.2019 22:00:00 18,5 11,1 18 10 44 24 S 0 0,0
14.10.2019 21:00:00 19,0 11,1 22 12 50 27 S 0 0,0
14.10.2019 20:00:00 19,3 11,3 26 14 41 22 S 0 -
14.10.2019 19:00:00 19,1 11,4 18 10 39 21 S 0 0,0
14.10.2019 18:00:00 19,8 12,5 21 11 44 24 SSE 12 0,0
14.10.2019 17:00:00 20,8 12,2 34 18 54 29 SSE 36 0,0
14.10.2019 16:00:00 22,0 13,1 29 16 50 27 SE 60 0,0
14.10.2019 15:00:00 22,1 12,6 31 17 46 25 SE 60 0,0
14.10.2019 14:00:00 21,9 12,4 29 16 55 30 SSE 60 -
14.10.2019 13:00:00 21,3 12,4 34 18 52 28 SSE 60 0,0
14.10.2019 12:00:00 19,8 12,3 28 15 44 24 SSE 54 0,0
14.10.2019 11:00:00 18,0 11,3 28 15 39 21 SSE 60 0,0
14.10.2019 10:00:00 16,3 10,2 26 14 39 21 SSE 60 0,0
14.10.2019 09:00:00 15,0 9,8 24 13 34 18 SSE 42 0,0
14.10.2019 08:00:00 14,0 10,0 21 11 35 19 SSE 0 -
14.10.2019 07:00:00 13,6 10,6 18 10 31 17 SSE 0 0,0
14.10.2019 06:00:00 14,0 11,0 22 12 37 20 SSE 0 0,0
14.10.2019 05:00:00 14,9 10,7 22 12 34 18 SSE 0 0,0
14.10.2019 04:00:00 15,3 10,3 22 12 31 17 SSE 0 0,0
14.10.2019 03:00:00 15,8 10,1 18 10 34 18 S 0 0,0
14.10.2019 02:00:00 15,9 10,0 24 13 34 18 SSE 0 -
14.10.2019 01:00:00 15,9 10,0 18 10 34 18 S 0 0,0
14.10.2019 00:00:00 17,3 9,7 24 13 37 20 S 0 0,0
13.10.2019 23:00:00 17,1 10,2 24 13 35 19 S 0 0,0
13.10.2019 22:00:00 17,7 10,6 22 12 34 18 S 0 0,0
13.10.2019 21:00:00 18,2 10,8 22 12 34 18 S 0 0,0
13.10.2019 20:00:00 18,7 10,8 18 10 39 21 S 0 -
13.10.2019 19:00:00 19,8 11,0 24 13 41 22 S 36 0,0
13.10.2019 18:00:00 21,2 10,9 26 14 44 24 SSE 60 0,0
13.10.2019 17:00:00 22,6 11,6 22 12 46 25 SSE 54 0,0
13.10.2019 16:00:00 23,4 10,4 24 13 48 26 S 60 0,0
13.10.2019 15:00:00 23,2 10,9 28 15 46 25 S 54 0,0
13.10.2019 14:00:00 22,5 11,2 22 12 44 24 SSE 60 -
13.10.2019 13:00:00 20,3 10,4 26 14 42 23 SSE 30 0,0
13.10.2019 12:00:00 19,7 10,7 21 11 37 20 SSE 30 0,0
13.10.2019 11:00:00 18,2 11,0 28 15 42 23 SSE 36 0,0
13.10.2019 10:00:00 17,2 10,6 26 14 39 21 SSE 60 0,0
13.10.2019 09:00:00 16,2 11,1 24 13 35 19 SSE 42 0,0
13.10.2019 08:00:00 15,2 11,4 24 13 35 19 SSE 0 -
13.10.2019 07:00:00 14,7 11,8 24 13 41 22 SE 0 0,0
13.10.2019 06:00:00 15,4 12,0 26 14 39 21 SSE 0 0,0
13.10.2019 05:00:00 15,1 12,4 29 16 42 23 SE 0 0,0
13.10.2019 04:00:00 15,6 12,5 29 16 46 25 SE 0 0,0
13.10.2019 03:00:00 15,9 12,6 28 15 44 24 SE 0 0,0
13.10.2019 02:00:00 16,7 12,4 28 15 42 23 SSE 0 -
13.10.2019 01:00:00 16,5 12,6 24 13 44 24 SSE 0 0,0
13.10.2019 00:00:00 16,9 12,4 29 16 42 23 SSE 0 0,0
12.10.2019 23:00:00 16,7 12,8 29 16 46 25 SSE 0 0,0
12.10.2019 22:00:00 16,5 13,2 26 14 44 24 SSE 0 0,0
12.10.2019 21:00:00 16,7 13,4 28 15 41 22 SSE 0 0,0
12.10.2019 20:00:00 16,8 13,7 28 15 39 21 SSE 0 -
12.10.2019 19:00:00 16,8 13,9 28 15 37 20 SE 0 0,0
12.10.2019 18:00:00 17,6 14,5 24 13 42 23 SE 0 0,0
12.10.2019 17:00:00 17,5 14,8 28 15 42 23 SE 24 0,0
12.10.2019 16:00:00 16,7 14,7 29 16 46 25 SE 18 0,0
12.10.2019 15:00:00 15,3 14,2 29 16 44 24 SE 0 0,0
12.10.2019 14:00:00 14,2 13,2 21 11 37 20 SE 0 -
12.10.2019 13:00:00 14,5 12,0 16 9 44 24 SW 0 0,8
12.10.2019 12:00:00 13,8 11,5 26 14 54 29 W 0 0,0
12.10.2019 11:00:00 16,5 11,2 16 9 28 15 SE 24 0,0
12.10.2019 10:00:00 16,4 10,3 18 10 34 18 SE 42 0,0
12.10.2019 09:00:00 15,2 8,7 18 10 29 16 SE 24 0,0
12.10.2019 08:00:00 14,7 7,5 18 10 28 15 S 0 -
12.10.2019 07:00:00 14,6 6,9 18 10 29 16 SSE 0 0,0
12.10.2019 06:00:00 14,8 6,9 18 10 29 16 SSE 0 0,0
12.10.2019 05:00:00 14,5 6,8 15 8 29 16 S 0 0,0
12.10.2019 04:00:00 14,7 6,8 16 9 28 15 S 0 0,0
12.10.2019 03:00:00 14,8 6,9 18 10 28 15 SSE 0 0,0
12.10.2019 02:00:00 15,4 6,9 16 9 29 16 S 0 -
12.10.2019 01:00:00 16,0 7,0 21 11 34 18 S 0 0,0
12.10.2019 00:00:00 16,3 7,0 28 15 44 24 SSW 0 0,0
11.10.2019 23:00:00 16,6 7,2 24 13 46 25 SW 0 0,0
11.10.2019 22:00:00 16,9 7,5 28 15 41 22 SW 0 0,0
11.10.2019 21:00:00 15,8 8,0 22 12 35 19 SSE 0 0,0
11.10.2019 20:00:00 16,2 9,1 21 11 29 16 SSE 0 -
11.10.2019 19:00:00 15,9 9,6 18 10 26 14 SE 42 0,0
11.10.2019 18:00:00 16,8 9,9 15 8 26 14 SE 60 0,0
11.10.2019 17:00:00 17,6 10,2 15 8 26 14 SE 60 0,0
11.10.2019 16:00:00 17,8 10,4 11 6 24 13 SE 60 0,0
11.10.2019 15:00:00 17,2 10,3 15 8 28 15 SE 60 0,0
11.10.2019 14:00:00 16,7 10,3 18 10 34 18 SE 60 -
11.10.2019 13:00:00 16,5 10,8 16 9 29 16 SE 60 0,0
11.10.2019 12:00:00 16,2 10,7 11 6 24 13 SE 48 0,0
11.10.2019 11:00:00 15,2 10,2 15 8 24 13 SSE 60 0,0
11.10.2019 10:00:00 14,2 9,8 13 7 22 12 S 60 0,0

tt = Température de l'air
td = dewpoint
ff = Vitesse du vent
fx = gusts
dd = Direction du vent
sd = Ensoleillement
rr = Quantités de précipitations

stations d'obs. à proximité